Latest Coastal Weather Observations for Port Hedland

IDW60701

Issued at 6:35 pm WST Wednesday 23 April 2014 (issued every 10 minutes, with the page automatically refreshed every 10 minutes)

About coastal observations | Map of coastal stations | Coastal observations for WA | Marine services | Other Formats
Station Details ID: 004032 Name: PORT HEDLAND AIRPORT Lat: -20.37 Lon: 118.63 Height: 6.4 m
Data from the previous 72 hours. | See also: Recent months at Port Hedland
Date/Time
WST
Temp

°C
Wind Pressure Rain
since 9am
mm
Weather Cloud Vis
km
Sea
Height
m
Swell
Dir
 
Speed
knots
Gust
knots
hPa Trend Height
m
Period
s
Dir
23/06:30pm 27.0 WNW 6 7 1010.3 - 0.0 - - 10 - - - -
23/06:00pm 28.2 WNW 7 9 1010.0 - 0.0 - - 10 - - - -
23/05:30pm 29.7 WNW 10 13 1009.7 - 0.0 - - 10 - - - -
23/05:00pm 30.9 NW 11 13 1009.3 - 0.0 - - 10 - - - -
23/04:30pm 31.2 NW 12 16 1008.9 - 0.0 - - 10 - - - -
23/04:00pm 32.7 NW 13 16 1008.7 - 0.0 - - 10 - - - -
23/03:30pm 33.1 NW 14 16 1008.6 - 0.0 - - 10 - - - -
23/03:00pm 33.8 NNW 13 15 1008.7 F 0.0 Fine Partly cloudy 30 - - - -
23/02:30pm 34.4 NW 11 14 1008.8 - 0.0 - - 10 - - - -
23/02:00pm 34.1 NNW 11 13 1009.0 - 0.0 - - 10 - - - -
23/01:30pm 34.2 NNW 11 13 1009.5 - 0.0 - - 10 - - - -
23/01:00pm 34.5 N 11 13 1009.9 - 0.0 - - 10 - - - -
23/12:30pm 34.2 N 10 13 1010.2 - 0.0 - - 10 - - - -
23/12:00pm 34.1 N 9 13 1010.7 F 0.0 Fine Partly cloudy 30 - - - -
23/11:30am 34.7 N 7 10 1011.1 - 0.0 - - 10 - - - -
23/11:00am 33.9 N 7 10 1011.8 - 0.0 - - 10 - - - -
23/10:30am 33.5 NNE 7 9 1012.2 - 0.0 - - 10 - - - -
23/10:00am 31.7 NE 6 9 1012.5 - 0.0 - - 10 - - - -
23/09:30am 31.3 SE 6 9 1012.6 - 0.0 - - 10 - - - -
23/09:00am 28.7 SSE 2 4 1012.6 F 0.2 Fine Partly cloudy 30 - - - -
23/08:30am 26.0 SSE 4 6 1012.8 - 0.2 - - 10 - - - -
23/08:00am 24.3 SSE 4 5 1012.6 - 0.2 - - 10 - - - -
23/07:30am 22.7 S 3 4 1012.4 - 0.2 - - 10 - - - -
23/07:00am 21.3 SSW 4 5 1012.0 - 0.2 - - 10 - - - -
23/06:30am 20.7 SSW 5 6 1011.8 - 0.2 - - 10 - - - -
23/06:00am 21.0 SSW 5 6 1011.6 F 0.2 Shallow fog Partly cloudy 30 - - - -
23/05:30am 21.3 SSW 5 6 1011.3 - 0.2 - - 10 - - - -
23/05:23am 21.4 SW 5 6 1011.2 - 0.2 - - 10 - - - -
23/05:00am 22.1 SW 6 6 1011.2 - 0.2 - Partly cloudy 2 - - - -
23/04:59am 22.1 SW 6 6 1011.2 - 0.2 - Partly cloudy 1 - - - -
23/04:56am 22.2 SW 5 6 1011.2 - 0.2 - Partly cloudy 0.6 - - - -
23/04:30am 23.3 SSW 5 6 1011.3 - 0.2 - Cloudy 0.2 - - - -
23/04:18am 23.3 SSW 5 6 1011.3 - 0.2 - Cloudy 0.8 - - - -
23/04:00am 22.9 S 5 6 1011.4 - 0.0 - Cloudy 1 - - - -
23/03:53am 23.0 S 5 6 1011.4 - 0.0 - Cloudy 0.6 - - - -
23/03:30am 22.3 SSW 5 6 1011.5 - 0.0 - Partly cloudy 0.2 - - - -
23/03:25am 22.0 SSW 5 6 1011.5 - 0.0 - Partly cloudy 0.9 - - - -
23/03:22am 21.8 SSW 5 6 1011.5 - 0.0 - Partly cloudy 5 - - - -
23/03:21am 21.9 SSW 5 6 1011.5 - 0.0 - Partly cloudy 9 - - - -
23/03:00am 21.0 SSW 7 9 1011.4 - 0.0 - - 10 - - - -
23/02:30am 21.2 S 6 7 1011.7 - 0.0 - - 10 - - - -
23/02:00am 21.2 SSE 6 6 1011.8 - 0.0 - - 10 - - - -
23/01:30am 21.7 S 3 5 1012.0 - 0.0 - - 10 - - - -
23/01:00am 21.3 CALM 0 0 1012.2 - 0.0 - - 10 - - - -
23/12:30am 21.6 CALM 0 0 1012.5 - 0.0 - - 10 - - - -
23/12:00am 22.5 SSW 3 5 1012.6 - 0.0 - - 10 - - - -
 
Date/Time
WST
Temp

°C
Wind Pressure Rain
since 9am
mm
Weather Cloud Vis
km
Sea
Height
m
Swell
Dir
 
Speed
knots
Gust
knots
hPa Trend Height
m
Period
s
Dir
22/11:30pm 22.3 SW 5 5 1012.8 - 0.0 - - 10 - - - -
22/11:00pm 22.5 WSW 5 6 1012.8 - 0.0 - - 10 - - - -
22/10:30pm 22.7 WSW 6 6 1012.9 - 0.0 - - 10 - - - -
22/10:00pm 23.0 WSW 6 7 1012.8 - 0.0 - - 10 - - - -
22/09:30pm 23.6 W 7 7 1012.7 - 0.0 - - 10 - - - -
22/09:00pm 23.5 WSW 6 7 1012.6 - 0.0 - - 10 - - - -
22/08:30pm 24.2 WSW 6 6 1012.5 - 0.0 - - 10 - - - -
22/08:00pm 24.6 W 5 6 1012.3 - 0.0 - - 10 - - - -
22/07:30pm 25.1 W 6 6 1011.8 - 0.0 - - 10 - - - -
22/07:00pm 25.9 WNW 5 6 1011.7 - 0.0 - - 10 - - - -
22/06:30pm 27.1 WNW 7 8 1011.5 - 0.0 - - 10 - - - -
22/06:00pm 28.2 WNW 8 11 1011.0 - 0.0 - - 10 - - - -
22/05:30pm 29.6 NW 9 11 1011.0 - 0.0 - - 10 - - - -
22/05:00pm 30.8 NW 11 14 1010.8 - 0.0 - - 10 - - - -
22/04:30pm 31.9 NW 12 15 1010.6 - 0.0 - - 10 - - - -
22/04:00pm 32.4 NW 11 14 1010.5 - 0.0 - - 10 - - - -
22/03:30pm 32.8 NW 12 14 1010.3 - 0.0 - - 10 - - - -
22/03:00pm 33.3 NNW 12 15 1010.3 R 0.0 Fine Mostly clear 30 - - - -
22/02:30pm 33.2 NNW 12 15 1010.5 - 0.0 - - 10 - - - -
22/02:00pm 32.9 N 11 14 1010.8 - 0.0 - - 10 - - - -
22/01:30pm 34.0 N 9 12 1011.1 - 0.0 - - 10 - - - -
22/01:00pm 33.4 N 9 11 1011.2 - 0.0 - - 10 - - - -
22/12:30pm 33.3 N 10 12 1011.5 - 0.0 - - 10 - - - -
22/12:00pm 32.5 N 9 11 1011.7 F 0.0 Fine Mostly clear 30 - - - -
22/11:30am 31.7 N 10 12 1012.3 - 0.0 - - 10 - - - -
22/11:00am 32.3 NNE 9 11 1012.6 - 0.0 - - 10 - - - -
22/10:30am 31.8 NNE 6 8 1013.0 - 0.0 - - 10 - - - -
22/10:00am 30.7 NNE 6 8 1013.2 - 0.0 - - 10 - - - -
22/09:30am 30.1 ENE 4 6 1013.4 - 0.0 - - 10 - - - -
22/09:00am 29.4 SE 3 4 1013.3 F 0.0 Fine Mostly clear 30 - - - -
22/08:30am 26.9 SSE 3 4 1013.4 - 0.0 - - 10 - - - -
22/08:00am 24.5 SSE 3 4 1013.3 - 0.0 - - 10 - - - -
22/07:30am 22.9 SSE 3 5 1013.0 - 0.0 - - 10 - - - -
22/07:00am 21.4 S 4 4 1012.8 - 0.0 - Mostly clear 10 - - - -
22/06:30am 20.8 S 4 5 1012.6 - 0.0 - Mostly clear 10 - - - -
22/06:00am 20.3 S 3 5 1012.3 F 0.0 Fine Mostly clear 30 - - - -
22/05:30am 20.8 S 4 4 1012.2 - 0.0 - - 10 - - - -
22/05:00am 21.2 S 4 5 1011.8 - 0.0 - - 10 - - - -
22/04:30am 21.5 S 6 7 1011.8 - 0.0 - - 10 - - - -
22/04:00am 21.7 S 5 6 1011.7 - 0.0 - - 10 - - - -
22/03:30am 21.8 S 5 6 1011.8 - 0.0 - - 10 - - - -
22/03:00am 21.3 SSW 4 5 1011.7 - 0.0 - - 10 - - - -
22/02:30am 21.9 S 4 5 1012.0 - 0.0 - - 10 - - - -
22/02:00am 21.9 S 4 5 1012.0 - 0.0 - - 10 - - - -
22/01:30am 21.6 SSW 3 4 1012.1 - 0.0 - - 10 - - - -
22/01:00am 22.1 SSW 4 5 1012.3 - 0.0 - - 10 - - - -
22/12:30am 22.2 SW 3 4 1012.4 - 0.0 - - 10 - - - -
22/12:00am 23.1 SSW 5 7 1012.3 - 0.0 - - 10 - - - -
 
Date/Time
WST
Temp

°C
Wind Pressure Rain
since 9am
mm
Weather Cloud Vis
km
Sea
Height
m
Swell
Dir
 
Speed
knots
Gust
knots
hPa Trend Height
m
Period
s
Dir
21/11:30pm 22.6 WSW 6 7 1012.5 - 0.0 - - 10 - - - -
21/11:00pm 23.0 CALM 0 4 1012.8 - 0.0 - - 10 - - - -
21/10:30pm 23.3 CALM 0 0 1012.9 - 0.0 - - 10 - - - -
21/10:00pm 23.1 CALM 0 0 1012.9 - 0.0 - - 10 - - - -
21/09:30pm 23.9 W 4 4 1012.8 - 0.0 - - 10 - - - -
21/09:00pm 23.9 WNW 5 5 1012.6 - 0.0 - - 10 - - - -
21/08:30pm 24.3 WNW 6 6 1012.5 - 0.0 - - 10 - - - -
21/08:00pm 24.8 WNW 6 7 1012.5 - 0.0 - - 10 - - - -
21/07:30pm 25.1 WNW 6 7 1012.2 - 0.0 - - 10 - - - -
21/07:00pm 25.7 NW 6 6 1012.0 - 0.0 - - 10 - - - -
21/06:30pm 26.5 WNW 6 7 1011.7 - 0.0 - - 10 - - - -
21/06:00pm 27.8 NW 6 8 1011.3 - 0.0 - - 10 - - - -
21/05:30pm 29.5 NW 9 12 1011.1 - 0.0 - - 10 - - - -
21/05:00pm 30.8 NW 11 14 1010.8 - 0.0 - - 10 - - - -
21/04:30pm 31.9 NW 12 15 1010.5 - 0.0 - - 10 - - - -
21/04:00pm 32.5 NW 11 15 1010.3 - 0.0 - - 10 - - - -
21/03:30pm 32.7 NW 12 15 1010.2 - 0.0 - - 10 - - - -
21/03:00pm 33.3 NNW 12 14 1010.1 R 0.0 Fine Mostly cloudy 30 - - - -
21/02:30pm 33.5 NNW 12 15 1010.2 - 0.0 - - 10 - - - -
21/02:00pm 33.3 N 11 14 1010.4 - 0.0 - - 10 - - - -
21/01:30pm 34.5 N 11 13 1010.4 - 0.0 - - 10 - - - -
21/01:00pm 35.6 N 10 13 1010.5 - 0.0 - - 10 - - - -
21/12:30pm 35.1 N 8 11 1010.6 - 0.0 - - 10 - - - -
21/12:00pm 36.0 NNW 7 10 1010.9 F 0.0 Fine Partly cloudy 30 - - - -
21/11:30am 35.5 S 5 9 1011.3 - 0.0 - - 10 - - - -
21/11:00am 35.1 WSW 6 9 1011.8 - 0.0 - - 10 - - - -
21/10:30am 33.9 SW 5 9 1012.2 - 0.0 - - 10 - - - -
21/10:00am 32.8 S 6 9 1012.5 - 0.0 - - 10 - - - -
21/09:30am 30.8 S 3 6 1012.6 - 0.0 - - 10 - - - -
21/09:00am 28.4 WSW 5 6 1012.6 R 0.0 Fine Partly cloudy 30 - - - -
21/08:30am 25.8 S 3 5 1012.7 - 0.0 - - 10 - - - -
21/08:16am 24.6 SSE 3 4 1012.8 - 0.0 - Partly cloudy 10 - - - -
21/08:10am 24.1 SE 1 4 1012.7 - 0.0 - Partly cloudy 10 - - - -
21/08:00am 23.6 CALM 0 2 1012.7 - 0.0 - Mostly clear 5 - - - -
21/07:54am 23.4 SE 2 4 1012.8 - 0.0 - Mostly clear 2 - - - -
21/07:30am 21.8 CALM 0 - 1012.6 - 0.0 Fog Mostly clear 0.1 - - - -
21/07:10am 20.4 ESE 4 5 1012.4 - 0.0 Fog Cloudy 0.2 - - - -
21/07:00am 20.1 SE 4 5 1012.2 - 0.0 Fog Mostly clear 0.9 - - - -
21/06:44am 20.0 S 4 5 1012.0 - 0.0 Mist Mostly clear 2 - - - -
21/06:32am 19.9 SSE 5 5 1011.9 - 0.0 Fog Mostly clear 0.5 - - - -
21/06:25am 20.0 SSE 4 5 1011.8 - 0.0 - Partly cloudy 0.5 - - - -
21/06:18am 19.9 S 4 5 1011.7 - 0.0 - Partly cloudy 0.5 - - - -
21/06:00am 20.0 S 4 5 1011.4 F 0.0 Mist Mostly clear 2 - - - -
21/05:30am 20.3 S 4 4 1011.4 - 0.0 - - 10 - - - -
21/05:00am 20.4 SSW 3 3 1011.2 - 0.0 - - 10 - - - -
21/04:30am 20.6 SSW 2 4 1011.0 - 0.0 - - 10 - - - -
21/04:00am 21.3 SSW 5 5 1010.9 - 0.0 - - 10 - - - -
21/03:30am 20.8 SSW 6 7 1010.8 - 0.0 - - 10 - - - -
21/03:00am 21.0 S 4 5 1010.8 - 0.0 - - 10 - - - -
21/02:30am 21.4 S 5 6 1011.0 - 0.0 - - 10 - - - -
21/02:00am 21.7 CALM 0 5 1011.1 - 0.0 - - 10 - - - -
21/01:30am 21.9 CALM 0 0 1011.1 - 0.0 - - 10 - - - -
21/01:00am 21.6 WSW 3 4 1010.9 - 0.0 - - 10 - - - -
21/12:30am 22.3 WSW 4 5 1010.9 - 0.0 - - 10 - - - -
21/12:00am 22.2 SW 6 6 1011.1 - 0.0 - - 10 - - - -
 
Date/Time
WST
Temp

°C
Wind Pressure Rain
since 9am
mm
Weather Cloud Vis
km
Sea
Height
m
Swell
Dir
 
Speed
knots
Gust
knots
hPa Trend Height
m
Period
s
Dir
20/11:30pm 22.7 SSW 5 5 1011.1 - 0.0 - - 10 - - - -
20/11:00pm 23.3 W 3 5 1011.3 - 0.0 - - 10 - - - -
20/10:30pm 23.6 CALM 0 0 1011.3 - 0.0 - - 10 - - - -
20/10:00pm 24.1 CALM 0 0 1011.4 - 0.0 - - 10 - - - -
20/09:30pm 24.8 CALM 0 0 1011.5 - 0.0 - - 10 - - - -
20/09:00pm 25.1 CALM 0 0 1011.4 - 0.0 - - 10 - - - -
20/08:30pm 25.0 CALM 0 0 1011.3 - 0.0 - - 10 - - - -
20/08:00pm 24.9 NW 5 6 1011.0 - 0.0 - - 10 - - - -
20/07:30pm 25.7 NW 5 6 1010.7 - 0.0 - - 10 - - - -
20/07:00pm 26.1 NW 5 6 1010.5 - 0.0 - - 10 - - - -

Other Formats:

Comma delimited format used in spreadsheet applications
http://www.bom.gov.au/fwo/IDW60701/IDW60701.94312.axf

JavaScript Object Notation format (JSON) in row-major order
http://www.bom.gov.au/fwo/IDW60701/IDW60701.94312.json